createdAt,value
2018-04-27T00:00:47.591Z,1.00
2018-04-27T00:03:18.715Z,1.00
2018-04-27T00:05:48.798Z,1.00
2018-04-27T00:08:45.268Z,1.00
2018-04-27T00:11:15.537Z,1.00
2018-04-27T00:19:36.191Z,1.00
2018-04-27T00:24:48.115Z,1.00
2018-04-27T00:27:18.458Z,1.00
2018-04-27T00:29:48.711Z,1.00
2018-04-27T00:32:18.776Z,1.00
2018-04-27T00:35:15.437Z,1.00
2018-04-27T00:37:45.512Z,1.00
2018-04-27T00:40:19.261Z,1.00
2018-04-27T00:42:49.969Z,1.00
2018-04-27T00:45:47.137Z,1.00
2018-04-27T00:48:17.209Z,1.00
2018-04-27T00:53:53.219Z,1.00
2018-04-27T00:56:46.312Z,1.00
2018-04-27T00:59:16.683Z,1.00
2018-04-27T01:04:47.918Z,1.00
2018-04-27T01:07:19.866Z,1.00
2018-04-27T01:09:50.316Z,1.00
2018-04-27T01:15:47.548Z,1.00
2018-04-27T01:21:18.253Z,1.00
2018-04-27T01:23:48.690Z,1.00
2018-04-27T01:26:19.545Z,1.00
2018-04-27T01:28:49.803Z,1.00
2018-04-27T01:31:19.888Z,1.00
2018-04-27T01:33:52.228Z,1.00
2018-04-27T01:36:22.621Z,1.00
2018-04-27T01:38:54.233Z,1.00
2018-04-27T01:41:26.135Z,1.00
2018-04-27T01:43:57.049Z,1.00
2018-04-27T01:46:27.702Z,1.00
2018-04-27T01:48:58.498Z,1.00
2018-04-27T01:51:28.587Z,1.00
2018-04-27T01:53:58.650Z,1.00
2018-04-27T02:02:43.056Z,1.00
2018-04-27T02:05:13.458Z,1.00
2018-04-27T02:07:43.569Z,1.00
2018-04-27T02:10:19.655Z,1.00
2018-04-27T02:16:03.102Z,1.00
2018-04-27T02:18:47.649Z,1.00
2018-04-27T02:21:18.513Z,1.00
2018-04-27T02:23:49.426Z,1.00
2018-04-27T02:29:46.994Z,1.00
2018-04-27T02:32:45.619Z,1.00
2018-04-27T02:35:16.595Z,1.00
2018-04-27T02:37:48.601Z,1.00
2018-04-27T02:40:19.789Z,1.00
2018-04-27T02:42:50.193Z,1.00
2018-04-27T02:54:49.259Z,1.00
2018-04-27T03:00:26.137Z,1.00
2018-04-27T03:03:12.093Z,1.00
2018-04-27T03:05:42.395Z,1.00
2018-04-27T03:08:13.047Z,1.00
2018-04-27T03:10:43.774Z,1.00
2018-04-27T03:13:14.363Z,1.00
2018-04-27T03:19:15.349Z,1.00
2018-04-27T03:21:51.312Z,1.00
2018-04-27T03:24:45.536Z,1.00
2018-04-27T03:27:15.628Z,1.00
2018-04-27T03:29:47.995Z,1.00
2018-04-27T03:32:18.393Z,1.00
2018-04-27T03:34:48.822Z,1.00
2018-04-27T03:37:19.525Z,1.00
2018-04-27T03:39:49.619Z,1.00
2018-04-27T03:42:49.158Z,1.00
2018-04-27T03:45:19.658Z,1.00
2018-04-27T03:47:50.088Z,1.00
2018-04-27T03:50:20.152Z,1.00
2018-04-27T03:52:50.248Z,1.00
2018-04-27T03:55:46.040Z,1.00
2018-04-27T04:07:27.601Z,1.00
2018-04-27T04:13:03.612Z,1.00
2018-04-27T04:15:33.788Z,1.00
2018-04-27T04:18:03.867Z,1.00
2018-04-27T04:20:34.414Z,1.00
2018-04-27T04:23:04.491Z,1.00
2018-04-27T04:25:34.757Z,1.00
2018-04-27T04:28:04.840Z,1.00
2018-04-27T04:30:34.916Z,1.00
2018-04-27T04:33:05.272Z,1.00
2018-04-27T04:35:47.898Z,1.00
2018-04-27T04:38:18.338Z,1.00
2018-04-27T04:40:49.462Z,1.00
2018-04-27T04:46:43.076Z,1.00
2018-04-27T04:54:48.012Z,1.00
2018-04-27T04:57:20.093Z,1.00
2018-04-27T04:59:50.367Z,1.00
2018-04-27T05:02:20.088Z,1.00
2018-04-27T05:04:50.375Z,1.00
2018-04-27T05:07:20.476Z,1.00
2018-04-27T05:09:50.539Z,1.00
2018-04-27T05:12:20.807Z,1.00
2018-04-27T05:14:50.612Z,1.00
2018-04-27T05:17:46.070Z,1.00
2018-04-27T05:20:21.071Z,1.00
2018-04-27T05:22:51.443Z,1.00
2018-04-27T05:25:21.396Z,1.00
2018-04-27T05:34:04.499Z,1.00
2018-04-27T05:36:46.893Z,1.00
2018-04-27T05:39:15.999Z,1.00
2018-04-27T06:04:16.185Z,99.90
2018-04-27T06:06:47.011Z,99.90
2018-04-27T06:09:17.044Z,99.90
2018-04-27T06:12:14.113Z,99.90
2018-04-27T06:14:44.354Z,99.90
2018-04-27T06:17:15.955Z,99.90
2018-04-27T06:19:46.044Z,99.90
2018-04-27T06:22:17.139Z,99.90
2018-04-27T06:24:47.714Z,99.90
2018-04-27T06:27:17.896Z,99.90
2018-04-27T06:29:48.736Z,99.90
2018-04-27T06:32:34.345Z,99.90
2018-04-27T06:35:03.730Z,99.90
2018-04-27T06:37:34.616Z,99.90
2018-04-27T06:49:19.275Z,99.90
2018-04-27T06:55:16.265Z,99.90
2018-04-27T06:57:48.907Z,99.90
2018-04-27T07:03:25.515Z,99.90
2018-04-27T07:12:04.144Z,99.90
2018-04-27T07:14:33.868Z,99.90
2018-04-27T07:17:03.958Z,99.90
2018-04-27T07:19:51.532Z,99.90
2018-04-27T07:22:49.084Z,99.90
2018-04-27T07:25:19.239Z,99.90
2018-04-27T07:28:15.803Z,99.90
2018-04-27T07:36:35.469Z,99.90
2018-04-27T07:41:52.278Z,99.90
2018-04-27T07:44:22.277Z,99.90
2018-04-27T07:46:51.960Z,99.90
2018-04-27T07:49:23.278Z,99.90
2018-04-27T09:02:37.458Z,99.90
2018-04-27T09:11:46.946Z,99.90
2018-04-27T09:20:35.899Z,99.90
2018-04-27T09:23:22.438Z,99.90
2018-04-27T09:29:12.093Z,99.90
2018-04-27T09:35:19.255Z,99.90
2018-04-27T09:44:17.254Z,99.90
2018-04-27T10:08:06.928Z,99.90
2018-04-27T10:20:14.134Z,99.90
2018-04-27T10:22:49.211Z,99.90
2018-04-27T10:25:19.550Z,99.90
2018-04-27T10:27:50.221Z,99.90
2018-04-27T10:30:20.356Z,99.90
2018-04-27T10:36:01.440Z,98.40
2018-04-27T10:38:34.080Z,99.90
2018-04-27T10:41:04.749Z,99.90
2018-04-27T10:53:01.498Z,81.00
2018-04-27T10:55:33.612Z,93.80
2018-04-27T10:58:03.336Z,93.70
2018-04-27T11:00:33.157Z,86.80
2018-04-27T11:03:05.632Z,99.90
2018-04-27T11:05:35.545Z,99.90
2018-04-27T11:11:24.267Z,77.00
2018-04-27T11:14:16.967Z,90.80
2018-04-27T11:19:40.123Z,98.20
2018-04-27T11:22:09.782Z,99.70
2018-04-27T11:24:41.320Z,97.10
2018-04-27T11:30:20.055Z,63.00
2018-04-27T12:04:54.333Z,75.80
2018-04-27T12:10:19.640Z,7.10
2018-04-27T12:22:10.753Z,43.80
2018-04-27T12:31:20.280Z,44.20
2018-04-27T12:33:53.137Z,39.40
2018-04-27T12:39:33.509Z,51.70
2018-04-27T12:42:03.179Z,50.20
2018-04-27T12:51:16.413Z,94.90
2018-04-27T13:02:44.296Z,99.90
2018-04-27T13:11:47.628Z,76.00
2018-04-27T13:20:46.894Z,60.50
2018-04-27T13:26:49.249Z,98.00
2018-04-27T13:29:20.159Z,73.80
2018-04-27T13:43:56.904Z,82.60
2018-04-27T13:46:27.597Z,76.70
2018-04-27T13:49:16.428Z,89.10
2018-04-27T13:51:47.982Z,80.10
2018-04-27T13:57:28.919Z,70.50
2018-04-27T13:59:58.648Z,87.90
2018-04-27T14:05:49.734Z,96.40
2018-04-27T14:14:30.574Z,99.90
2018-04-27T14:19:58.103Z,96.60
2018-04-27T14:22:53.636Z,99.90
2018-04-27T14:28:56.210Z,98.00
2018-04-27T14:34:44.061Z,99.90
2018-04-27T14:37:55.807Z,99.90
2018-04-27T14:40:48.781Z,97.70
2018-04-27T14:49:15.657Z,99.90
2018-04-27T15:39:16.509Z,99.90
2018-04-27T15:57:31.642Z,99.90
2018-04-27T16:03:19.364Z,99.90
2018-04-27T16:09:25.720Z,99.90
2018-04-27T16:21:27.008Z,59.40
2018-04-27T16:23:56.712Z,73.70
2018-04-27T16:26:28.196Z,81.00
2018-04-27T16:28:57.937Z,88.10
2018-04-27T16:31:28.521Z,90.60
2018-04-27T16:33:59.870Z,87.60
2018-04-27T16:36:32.744Z,98.40
2018-04-27T16:45:45.885Z,88.70
2018-04-27T16:48:19.821Z,85.50
2018-04-27T16:54:04.666Z,59.50
2018-04-27T17:15:11.049Z,81.40
2018-04-27T17:20:49.637Z,78.60
2018-04-27T17:40:17.168Z,99.90
2018-04-27T17:45:53.154Z,99.90
2018-04-27T17:54:42.001Z,99.90
2018-04-27T17:57:11.784Z,99.90
2018-04-27T17:59:42.157Z,99.90
2018-04-27T18:02:25.472Z,99.90
2018-04-27T18:05:17.823Z,99.90
2018-04-27T18:10:57.724Z,99.90
2018-04-27T18:16:49.415Z,99.90
2018-04-27T18:22:26.526Z,99.90
2018-04-27T18:28:17.473Z,99.90
2018-04-27T18:30:48.334Z,99.90
2018-04-27T18:33:19.667Z,99.90
2018-04-27T18:35:49.276Z,99.90
2018-04-27T18:38:20.083Z,99.90
2018-04-27T18:41:15.827Z,99.90
2018-04-27T18:43:48.819Z,99.90
2018-04-27T18:49:23.991Z,99.90
2018-04-27T18:52:08.590Z,99.90
2018-04-27T18:54:37.751Z,99.90
2018-04-27T18:57:07.172Z,99.90
2018-04-27T18:59:36.309Z,99.90
2018-04-27T19:02:05.399Z,99.90
2018-04-27T19:04:35.438Z,99.90
2018-04-27T19:07:04.896Z,99.90
2018-04-27T19:09:34.999Z,99.90
2018-04-27T19:12:04.410Z,99.90
2018-04-27T19:14:34.424Z,99.90
2018-04-27T19:17:03.600Z,99.90
2018-04-27T19:19:32.779Z,99.90
2018-04-27T19:22:21.820Z,99.90
2018-04-27T19:27:59.915Z,99.90
2018-04-27T19:30:30.174Z,99.90
2018-04-27T19:33:17.718Z,99.90
2018-04-27T19:35:47.245Z,99.90
2018-04-27T19:41:18.625Z,99.90
2018-04-27T19:43:47.999Z,99.90
2018-04-27T19:46:17.927Z,99.90
2018-04-27T19:48:48.417Z,99.90
2018-04-27T19:51:22.188Z,99.90
2018-04-27T19:53:52.307Z,99.90
2018-04-27T19:59:47.015Z,99.90
2018-04-27T20:02:26.338Z,99.90
2018-04-27T20:08:06.439Z,99.90
2018-04-27T20:13:20.970Z,99.90
2018-04-27T20:15:52.004Z,99.90
2018-04-27T20:18:24.016Z,99.90
2018-04-27T20:21:03.041Z,99.90
2018-04-27T20:23:48.910Z,99.90
2018-04-27T20:26:23.707Z,99.90
2018-04-27T20:29:17.082Z,99.90
2018-04-27T20:31:47.383Z,99.90
2018-04-27T20:34:17.368Z,99.90
2018-04-27T20:39:58.435Z,99.90
2018-04-27T20:42:28.387Z,99.90
2018-04-27T20:48:16.023Z,99.90
2018-04-27T20:51:02.992Z,99.90
2018-04-27T20:53:57.592Z,99.90
2018-04-27T20:56:36.288Z,99.90
2018-04-27T20:59:05.974Z,99.90
2018-04-27T21:01:35.124Z,99.90
2018-04-27T21:04:04.104Z,99.90
2018-04-27T21:07:11.605Z,99.90
2018-04-27T21:22:30.811Z,99.90
2018-04-27T21:24:59.843Z,99.90
2018-04-27T21:27:43.636Z,99.90
2018-04-27T21:30:13.550Z,99.90
2018-04-27T21:32:42.884Z,99.90
2018-04-27T21:35:12.038Z,99.90
2018-04-27T21:40:43.491Z,99.90
2018-04-27T21:43:14.135Z,99.90
2018-04-27T21:53:41.018Z,99.90
2018-04-27T21:56:10.570Z,99.90
2018-04-27T21:58:40.792Z,99.90
2018-04-27T22:01:10.104Z,99.90
2018-04-27T22:03:41.443Z,99.90
2018-04-27T22:06:19.046Z,99.90
2018-04-27T22:11:54.715Z,99.90
2018-04-27T22:20:38.895Z,99.90
2018-04-27T22:23:10.176Z,99.90
2018-04-27T22:25:48.591Z,99.90
2018-04-27T22:31:11.640Z,99.90
2018-04-27T22:33:42.051Z,99.90
2018-04-27T22:39:27.872Z,99.90
2018-04-27T22:45:28.176Z,99.90
2018-04-27T22:51:17.681Z,99.90
2018-04-27T22:56:47.740Z,99.90
2018-04-27T22:59:23.691Z,99.90
2018-04-27T23:01:55.348Z,99.90
2018-04-27T23:04:24.481Z,99.90
2018-04-27T23:06:54.750Z,99.90
2018-04-27T23:09:24.668Z,99.90
2018-04-27T23:11:55.309Z,99.90
2018-04-27T23:17:31.616Z,99.90
2018-04-27T23:20:36.679Z,99.90
2018-04-27T23:23:25.204Z,99.90
2018-04-27T23:25:55.002Z,99.90
2018-04-27T23:34:08.637Z,99.90
2018-04-27T23:36:37.769Z,99.90
2018-04-27T23:42:13.930Z,99.90
2018-04-27T23:44:47.764Z,99.90
2018-04-27T23:47:18.204Z,99.90
2018-04-27T23:49:47.340Z,99.90
2018-04-27T23:52:25.574Z,99.90
2018-04-27T23:54:57.593Z,99.90
